Time;durP1;ratioP1;P1;durP2;ratioP2;P2;SDS_P1;SDS_P2;PMS_P1;PMS_P2;Temp;Humidity;BMP_temperature;BMP_pressure;BME280_temperature;BME280_humidity;BME280_pressure;Samples;Min_cycle;Max_cycle;Signal;HPM_P1;HPM_P2
2022/10/13 00:02:25;;;;;;;;;;;;;;;20.58;50.76;96187.94;10481960;28;2055;-52
2022/10/13 00:07:26;;;;;;;;;;;;;;;20.60;50.57;96186.63;10490134;28;1912;-50
2022/10/13 00:12:26;;;;;;;;;;;;;;;20.58;50.59;96186.13;10489665;28;1973;-50
2022/10/13 00:17:26;;;;;;;;;;;;;;;20.60;50.34;96180.56;10492454;28;2111;-49
2022/10/13 00:22:26;;;;;;;;;;;;;;;20.58;50.59;96178.22;10483379;28;1944;-47
2022/10/13 00:27:27;;;;;;;;;;;;;;;20.56;50.61;96169.78;10493687;28;1869;-49
2022/10/13 00:32:27;;;;;;;;;;;;;;;20.56;50.51;96169.78;10489395;28;1993;-51
2022/10/13 00:37:28;;;;;;;;;;;;;;;20.58;50.39;96172.94;10484029;28;1959;-52
2022/10/13 00:42:28;;;;;;;;;;;;;;;20.55;50.46;96176.09;10482713;28;1971;-49
2022/10/13 00:47:30;;;;;;;;;;;;;;;20.56;50.41;96174.25;10490226;28;2046;-51
2022/10/13 00:52:30;;;;;;;;;;;;;;;20.55;50.41;96173.47;10470797;28;2033;-48
2022/10/13 00:57:31;;;;;;;;;;;;;;;20.57;50.08;96173.97;10472150;28;2049;-48
2022/10/13 01:02:33;;;;;;;;;;;;;;;20.55;50.31;96162.91;10486337;28;2100;-50
2022/10/13 01:07:34;;;;;;;;;;;;;;;20.54;50.38;96169.25;10469376;28;2136;-51
2022/10/13 01:12:37;;;;;;;;;;;;;;;20.56;50.20;96174.25;10467090;28;2090;-49
2022/10/13 01:17:43;;;;;;;;;;;;;;;20.54;50.19;96177.16;10487556;28;2050;-49
2022/10/13 01:22:43;;;;;;;;;;;;;;;20.54;50.20;96174.53;10469743;28;2298;-51
2022/10/13 01:27:43;;;;;;;;;;;;;;;20.51;49.89;96175.03;10488015;28;1961;-48
2022/10/13 01:32:44;;;;;;;;;;;;;;;20.52;50.26;96174.00;10489408;28;1973;-50
2022/10/13 01:37:47;;;;;;;;;;;;;;;20.52;50.23;96173.19;10488328;28;2009;-49
2022/10/13 01:42:54;;;;;;;;;;;;;;;20.53;49.87;96172.94;10473536;28;2076;-48
2022/10/13 01:47:54;;;;;;;;;;;;;;;20.51;49.99;96182.13;10487173;28;2013;-50
2022/10/13 01:52:54;;;;;;;;;;;;;;;20.52;50.02;96176.63;10484953;28;2111;-51
2022/10/13 01:57:55;;;;;;;;;;;;;;;20.50;49.88;96173.47;10489891;28;2156;-52
2022/10/13 02:02:55;;;;;;;;;;;;;;;20.51;49.67;96172.41;10482003;28;2024;-51
2022/10/13 02:08:00;;;;;;;;;;;;;;;20.50;49.87;96176.09;10472779;28;2069;-48
2022/10/13 02:13:01;;;;;;;;;;;;;;;20.49;49.70;96181.59;10443655;28;2072;-50
2022/10/13 02:18:02;;;;;;;;;;;;;;;20.48;49.76;96183.47;10483135;28;2048;-50
2022/10/13 02:23:03;;;;;;;;;;;;;;;20.47;49.65;96181.88;10468675;28;1981;-49
2022/10/13 02:28:03;;;;;;;;;;;;;;;20.46;49.65;96185.59;10489635;28;2008;-53
2022/10/13 02:33:04;;;;;;;;;;;;;;;20.46;49.57;96188.22;10480049;28;2187;-48
2022/10/13 02:38:04;;;;;;;;;;;;;;;20.46;49.79;96175.06;10468552;28;2050;-52
2022/10/13 02:43:04;;;;;;;;;;;;;;;20.46;49.57;96174.25;10489438;28;2476;-48
2022/10/13 02:48:05;;;;;;;;;;;;;;;20.45;49.39;96170.81;10486453;28;2393;-53
2022/10/13 02:53:05;;;;;;;;;;;;;;;20.48;49.44;96178.22;10482117;28;2162;-50
2022/10/13 02:58:05;;;;;;;;;;;;;;;20.46;49.61;96180.31;10481451;28;1974;-48
2022/10/13 03:03:05;;;;;;;;;;;;;;;20.45;49.28;96167.38;10482079;28;1963;-47
2022/10/13 03:08:06;;;;;;;;;;;;;;;20.46;49.57;96161.88;10484230;28;2121;-49
2022/10/13 03:13:06;;;;;;;;;;;;;;;20.44;49.33;96161.34;10470048;28;2003;-50
2022/10/13 03:18:06;;;;;;;;;;;;;;;20.42;49.37;96160.03;10487750;28;2025;-50
2022/10/13 03:23:07;;;;;;;;;;;;;;;20.40;49.50;96149.75;10485909;28;2066;-49
2022/10/13 03:28:07;;;;;;;;;;;;;;;20.43;49.31;96143.97;10493234;28;2158;-50
2022/10/13 03:33:07;;;;;;;;;;;;;;;20.41;49.76;96151.34;10479883;28;2023;-49
2022/10/13 03:38:07;;;;;;;;;;;;;;;20.46;49.80;96153.97;10485584;28;1967;-49
2022/10/13 03:43:08;;;;;;;;;;;;;;;20.53;49.61;96157.13;10466216;28;1971;-50
2022/10/13 03:48:08;;;;;;;;;;;;;;;20.56;49.61;96164.50;10485368;28;2147;-49
2022/10/13 03:53:10;;;;;;;;;;;;;;;20.61;49.12;96166.38;10483792;28;2004;-48
2022/10/13 03:58:10;;;;;;;;;;;;;;;20.60;48.97;96170.84;10491679;28;1947;-47
2022/10/13 04:03:10;;;;;;;;;;;;;;;20.62;48.27;96176.63;10482909;28;2064;-50
2022/10/13 04:08:15;;;;;;;;;;;;;;;20.64;48.33;96169.25;10485280;28;2162;-48
2022/10/13 04:13:15;;;;;;;;;;;;;;;20.68;47.80;96177.41;10482376;28;1974;-48
2022/10/13 04:18:16;;;;;;;;;;;;;;;20.72;48.22;96178.47;10485290;28;1953;-48
2022/10/13 04:23:16;;;;;;;;;;;;;;;20.76;48.04;96174.25;10488974;28;2115;-49
2022/10/13 04:28:16;;;;;;;;;;;;;;;20.80;48.11;96181.38;10492738;28;2027;-51
2022/10/13 04:33:16;;;;;;;;;;;;;;;20.82;47.81;96181.88;10487962;28;2031;-50
2022/10/13 04:38:17;;;;;;;;;;;;;;;20.86;47.97;96180.31;10488113;28;2017;-49
2022/10/13 04:43:17;;;;;;;;;;;;;;;20.88;47.84;96175.56;10489676;28;2011;-52
2022/10/13 04:48:26;;;;;;;;;;;;;;;20.91;47.46;96167.13;10481647;28;2063;-48
2022/10/13 04:53:28;;;;;;;;;;;;;;;20.93;47.30;96166.88;10484239;28;2198;-49
2022/10/13 04:58:28;;;;;;;;;;;;;;;20.96;47.40;96168.94;10491345;28;2054;-51
2022/10/13 05:03:28;;;;;;;;;;;;;;;20.98;47.04;96159.72;10487061;28;2055;-47
2022/10/13 05:08:29;;;;;;;;;;;;;;;21.01;47.31;96153.94;10464914;28;2042;-48
2022/10/13 05:13:29;;;;;;;;;;;;;;;21.02;46.98;96158.19;10488334;28;2058;-51
2022/10/13 05:18:29;;;;;;;;;;;;;;;21.04;47.30;96155.28;10487649;28;2063;-52
2022/10/13 05:23:29;;;;;;;;;;;;;;;21.08;47.36;96158.19;10490937;28;2107;-47
2022/10/13 05:28:30;;;;;;;;;;;;;;;21.11;47.77;96155.78;10461944;28;2128;-46
2022/10/13 05:33:30;;;;;;;;;;;;;;;21.14;48.09;96163.19;10463852;28;2157;-46
2022/10/13 05:38:30;;;;;;;;;;;;;;;21.19;48.06;96162.34;10470661;28;2111;-50
2022/10/13 05:43:31;;;;;;;;;;;;;;;21.19;47.25;96159.72;10485554;28;2439;-47
2022/10/13 05:48:31;;;;;;;;;;;;;;;21.19;47.67;96162.34;10481032;28;2023;-50
2022/10/13 05:53:32;;;;;;;;;;;;;;;21.22;48.02;96156.56;10486943;28;2078;-48
2022/10/13 05:58:33;;;;;;;;;;;;;;;21.25;48.03;96156.00;10468266;28;2100;-51
2022/10/13 06:03:33;;;;;;;;;;;;;;;21.25;47.32;96156.81;10469337;28;2124;-53
2022/10/13 06:08:33;;;;;;;;;;;;;;;21.25;47.30;96161.28;10482716;28;2019;-51
2022/10/13 06:13:34;;;;;;;;;;;;;;;21.28;47.94;96161.56;10488014;28;2055;-46
2022/10/13 06:18:34;;;;;;;;;;;;;;;21.30;47.91;96158.66;10487697;28;2100;-53
2022/10/13 06:23:35;;;;;;;;;;;;;;;21.30;47.56;96158.66;10491463;28;2060;-48
2022/10/13 06:28:35;;;;;;;;;;;;;;;21.30;47.75;96156.81;10488648;28;2051;-49
2022/10/13 06:33:35;;;;;;;;;;;;;;;21.32;47.69;96161.81;10479854;28;1983;-52
2022/10/13 06:38:35;;;;;;;;;;;;;;;21.33;47.65;96168.69;10482055;28;1998;-49
2022/10/13 06:43:36;;;;;;;;;;;;;;;21.33;47.66;96164.16;10480183;28;1959;-49
2022/10/13 06:48:36;;;;;;;;;;;;;;;21.33;48.01;96156.25;10483863;28;1992;-50
2022/10/13 06:53:37;;;;;;;;;;;;;;;21.35;47.56;96156.00;10491844;28;2095;-49
2022/10/13 06:58:38;;;;;;;;;;;;;;;21.34;47.67;96157.84;10481368;28;1999;-53
2022/10/13 07:03:38;;;;;;;;;;;;;;;21.35;47.74;96161.28;10492008;28;2019;-49
2022/10/13 07:08:38;;;;;;;;;;;;;;;21.36;47.80;96158.38;10480792;28;2041;-52
2022/10/13 07:13:39;;;;;;;;;;;;;;;21.37;47.66;96164.44;10481040;28;2169;-48
2022/10/13 07:18:39;;;;;;;;;;;;;;;21.37;47.71;96164.44;10484724;28;2068;-50
2022/10/13 07:23:45;;;;;;;;;;;;;;;21.37;47.85;96164.44;10478608;28;2021;-52
2022/10/13 07:28:45;;;;;;;;;;;;;;;21.37;47.78;96159.16;10478378;28;2036;-49
2022/10/13 07:33:46;;;;;;;;;;;;;;;21.36;47.53;96149.66;10477887;28;2044;-53
2022/10/13 07:38:46;;;;;;;;;;;;;;;21.36;47.78;96152.31;10483149;28;2016;-51
2022/10/13 07:43:46;;;;;;;;;;;;;;;21.36;47.66;96153.09;10479617;28;2011;-49
2022/10/13 07:48:47;;;;;;;;;;;;;;;21.36;47.20;96152.31;10489630;28;2122;-51
2022/10/13 07:53:48;;;;;;;;;;;;;;;21.35;47.58;96146.22;10483183;28;2007;-51
2022/10/13 07:58:48;;;;;;;;;;;;;;;21.34;46.96;96138.59;10480454;28;2131;-49
2022/10/13 08:03:49;;;;;;;;;;;;;;;21.39;47.15;96146.50;10484184;28;2062;-49
2022/10/13 08:08:49;;;;;;;;;;;;;;;21.44;47.23;96146.47;10480723;28;1879;-51
2022/10/13 08:13:59;;;;;;;;;;;;;;;21.43;47.74;96139.63;10480911;28;2258;-49
2022/10/13 08:19:01;;;;;;;;;;;;;;;21.44;47.67;96130.66;10480899;28;1966;-52
2022/10/13 08:24:01;;;;;;;;;;;;;;;21.44;47.34;96138.56;10480383;28;2147;-49
2022/10/13 08:29:02;;;;;;;;;;;;;;;21.46;47.47;96137.25;10483317;28;1923;-50
2022/10/13 08:34:02;;;;;;;;;;;;;;;21.42;47.02;96146.75;10464850;28;2094;-48
2022/10/13 08:39:02;;;;;;;;;;;;;;;21.39;46.85;96157.06;10477046;28;2327;-52
2022/10/13 08:44:15;;;;;;;;;;;;;;;21.39;47.11;96146.50;10479176;28;2038;-51
2022/10/13 08:49:15;;;;;;;;;;;;;;;21.36;46.67;96145.19;10464327;28;1964;-51
2022/10/13 08:54:16;;;;;;;;;;;;;;;21.37;47.04;96140.72;10466641;28;2052;-52
2022/10/13 08:59:17;;;;;;;;;;;;;;;21.37;46.97;96133.56;10489515;28;2038;-48
2022/10/13 09:04:31;;;;;;;;;;;;;;;21.35;46.66;96129.63;10467200;28;2113;-52
2022/10/13 09:09:32;;;;;;;;;;;;;;;21.37;47.22;96135.44;10490415;28;1931;-52
2022/10/13 09:14:33;;;;;;;;;;;;;;;21.38;47.16;96137.00;10496358;28;2059;-47
2022/10/13 09:19:41;;;;;;;;;;;;;;;21.43;47.31;96135.13;10489336;28;2320;-46
2022/10/13 09:24:41;;;;;;;;;;;;;;;21.45;46.97;96127.72;10494294;28;2014;-50
2022/10/13 09:29:42;;;;;;;;;;;;;;;21.49;47.27;96120.09;10487890;28;2152;-49
2022/10/13 09:34:42;;;;;;;;;;;;;;;21.46;47.17;96108.22;10488407;28;2095;-52
2022/10/13 09:39:42;;;;;;;;;;;;;;;21.50;47.10;96114.53;10486797;28;2050;-51
2022/10/13 09:44:43;;;;;;;;;;;;;;;21.46;47.18;96113.50;10493100;28;2019;-50
2022/10/13 09:49:43;;;;;;;;;;;;;;;21.43;47.24;96111.38;10479551;28;2076;-51
2022/10/13 09:54:44;;;;;;;;;;;;;;;21.45;47.59;96111.13;10482989;28;2088;-50
2022/10/13 09:59:48;;;;;;;;;;;;;;;21.51;47.55;96108.22;10485881;28;2061;-49
2022/10/13 10:04:48;;;;;;;;;;;;;;;21.48;47.14;96108.75;10485449;28;2031;-46
2022/10/13 10:09:53;;;;;;;;;;;;;;;21.51;47.62;96102.16;10459857;28;2080;-51
2022/10/13 10:14:53;;;;;;;;;;;;;;;21.49;47.52;96105.06;10485856;28;2034;-49
2022/10/13 10:20:12;;;;;;;;;;;;;;;21.53;47.81;96107.94;10470389;28;2126;-51
2022/10/13 10:25:13;;;;;;;;;;;;;;;21.52;47.96;96108.97;10464074;28;2003;-48
2022/10/13 10:30:13;;;;;;;;;;;;;;;21.50;47.83;96106.63;10484554;28;1950;-48
2022/10/13 10:35:14;;;;;;;;;;;;;;;21.53;47.75;96100.03;10472646;28;2158;-50
2022/10/13 10:40:14;;;;;;;;;;;;;;;21.52;47.85;96091.31;10483260;28;2025;-48
2022/10/13 10:45:25;;;;;;;;;;;;;;;21.51;48.04;96092.38;10485076;28;2044;-50
2022/10/13 10:50:25;;;;;;;;;;;;;;;21.52;47.82;96086.03;10469116;28;2054;-48
2022/10/13 10:55:28;;;;;;;;;;;;;;;21.57;47.78;96082.59;10484441;28;2080;-48
2022/10/13 11:00:29;;;;;;;;;;;;;;;21.49;47.77;96069.97;10478142;28;2002;-51
2022/10/13 11:05:48;;;;;;;;;;;;;;;21.55;47.79;96068.88;10450800;28;2130;-50
2022/10/13 11:10:48;;;;;;;;;;;;;;;21.55;48.10;96060.97;10484722;28;2092;-50
2022/10/13 11:15:48;;;;;;;;;;;;;;;21.57;48.22;96053.56;10446309;28;2342;-49
2022/10/13 11:20:55;;;;;;;;;;;;;;;21.61;47.90;96036.16;10446760;28;2094;-48
2022/10/13 11:26:15;;;;;;;;;;;;;;;21.59;48.31;96041.69;10482710;28;2058;-49
2022/10/13 11:31:22;;;;;;;;;;;;;;;21.62;48.15;96021.88;10478454;28;2016;-48
2022/10/13 11:36:28;;;;;;;;;;;;;;;21.66;47.98;96015.00;10481602;28;2046;-53
2022/10/13 11:41:30;;;;;;;;;;;;;;;21.65;48.16;96018.72;10482995;28;2043;-49
2022/10/13 11:46:35;;;;;;;;;;;;;;;21.64;48.10;96019.75;10462253;28;2069;-48
2022/10/13 11:51:41;;;;;;;;;;;;;;;21.64;48.31;96017.13;10445327;28;2168;-49
2022/10/13 11:56:42;;;;;;;;;;;;;;;21.68;48.18;96007.59;10482994;28;2003;-49
2022/10/13 12:01:42;;;;;;;;;;;;;;;21.62;48.37;95998.13;10480828;28;1973;-52
2022/10/13 12:06:44;;;;;;;;;;;;;;;21.60;48.37;95987.06;10483174;28;2055;-48
2022/10/13 12:11:44;;;;;;;;;;;;;;;21.57;48.68;95977.09;10468508;28;2053;-46
2022/10/13 12:16:52;;;;;;;;;;;;;;;21.54;48.48;95969.69;10477955;28;2147;-47
2022/10/13 12:21:53;;;;;;;;;;;;;;;21.54;48.53;95964.44;10482559;28;2138;-48
2022/10/13 12:26:53;;;;;;;;;;;;;;;21.55;48.51;95973.94;10481573;28;1999;-47
2022/10/13 12:31:54;;;;;;;;;;;;;;;21.48;48.75;95968.16;10476735;28;2038;-53
2022/10/13 12:36:54;;;;;;;;;;;;;;;21.50;48.59;95958.91;10482121;28;2047;-49
2022/10/13 12:41:54;;;;;;;;;;;;;;;21.49;48.70;95961.84;10486463;28;1872;-50
2022/10/13 12:47:02;;;;;;;;;;;;;;;21.51;48.45;95960.50;10485748;28;1958;-50
2022/10/13 12:52:09;;;;;;;;;;;;;;;21.49;48.59;95956.56;10486722;28;2145;-47
2022/10/13 12:57:35;;;;;;;;;;;;;;;21.52;48.79;95948.09;10472044;28;2043;-48
2022/10/13 13:02:35;;;;;;;;;;;;;;;21.53;48.83;95945.19;10479569;28;2067;-48
2022/10/13 13:07:38;;;;;;;;;;;;;;;21.59;48.49;95935.38;10486610;28;1895;-49
2022/10/13 13:12:38;;;;;;;;;;;;;;;21.59;48.47;95938.81;10487473;28;2035;-48
2022/10/13 13:17:39;;;;;;;;;;;;;;;21.64;48.55;95932.69;10488080;28;2042;-50
2022/10/13 13:22:39;;;;;;;;;;;;;;;21.62;48.58;95934.81;10480352;28;2043;-46
2022/10/13 13:27:39;;;;;;;;;;;;;;;21.64;48.38;95937.97;10487717;28;2036;-47
2022/10/13 13:32:40;;;;;;;;;;;;;;;21.66;48.60;95936.63;10485147;28;2094;-49
2022/10/13 13:37:41;;;;;;;;;;;;;;;21.67;48.17;95921.59;10487569;28;1927;-48
2022/10/13 13:42:41;;;;;;;;;;;;;;;21.62;48.45;95916.34;10472730;28;2022;-46
2022/10/13 13:47:41;;;;;;;;;;;;;;;21.61;48.29;95909.53;10486482;28;2135;-51
2022/10/13 13:52:42;;;;;;;;;;;;;;;21.60;48.83;95916.63;10485576;28;2098;-52
2022/10/13 13:57:42;;;;;;;;;;;;;;;21.62;48.30;95911.88;10485186;28;1963;-48
2022/10/13 14:02:42;;;;;;;;;;;;;;;21.61;48.50;95904.25;10490413;28;2069;-46
2022/10/13 14:07:43;;;;;;;;;;;;;;;21.59;48.66;95906.38;10483852;28;2046;-45
2022/10/13 14:12:43;;;;;;;;;;;;;;;21.60;48.52;95900.03;10463109;28;1978;-44
2022/10/13 14:17:43;;;;;;;;;;;;;;;21.60;48.95;95905.28;10479895;28;2073;-44
2022/10/13 14:22:43;;;;;;;;;;;;;;;21.56;48.79;95899.78;10478722;28;2043;-43
2022/10/13 14:27:44;;;;;;;;;;;;;;;21.56;48.66;95899.78;10479576;28;2043;-44
2022/10/13 14:32:45;;;;;;;;;;;;;;;21.64;48.36;95903.69;10467950;28;2053;-45
2022/10/13 14:37:45;;;;;;;;;;;;;;;21.55;48.61;95895.59;10484926;28;2113;-48
2022/10/13 14:42:45;;;;;;;;;;;;;;;21.58;48.46;95892.38;10468647;28;2022;-43
2022/10/13 14:47:46;;;;;;;;;;;;;;;21.55;48.59;95892.16;10482374;28;2036;-47
2022/10/13 14:52:46;;;;;;;;;;;;;;;21.56;48.60;95889.25;10480858;28;2101;-42
2022/10/13 14:57:47;;;;;;;;;;;;;;;21.56;48.87;95891.09;10483959;28;2038;-44
2022/10/13 15:02:47;;;;;;;;;;;;;;;21.66;48.52;95888.34;10468743;28;2101;-45
2022/10/13 15:07:47;;;;;;;;;;;;;;;21.65;48.74;95886.81;10482849;28;2060;-44
2022/10/13 15:12:50;;;;;;;;;;;;;;;21.66;48.77;95883.09;10479266;28;2005;-45
2022/10/13 15:17:50;;;;;;;;;;;;;;;21.67;48.73;95879.41;10477022;28;2082;-47
2022/10/13 15:22:53;;;;;;;;;;;;;;;21.65;49.06;95879.69;10477188;28;2031;-46
2022/10/13 15:27:53;;;;;;;;;;;;;;;21.63;48.94;95879.16;10479651;28;2038;-45
2022/10/13 15:32:53;;;;;;;;;;;;;;;21.62;49.01;95874.16;10481992;28;2039;-47
2022/10/13 15:37:54;;;;;;;;;;;;;;;21.64;48.90;95880.72;10477448;28;2026;-48
2022/10/13 15:42:54;;;;;;;;;;;;;;;21.63;48.67;95881.00;10482237;28;2035;-43
2022/10/13 15:47:56;;;;;;;;;;;;;;;21.63;48.61;95878.38;10486442;28;2093;-53
2022/10/13 15:52:56;;;;;;;;;;;;;;;21.63;48.93;95881.00;10478227;28;2125;-49
2022/10/13 15:57:56;;;;;;;;;;;;;;;21.62;48.85;95874.16;10489646;28;2081;-51
2022/10/13 16:02:57;;;;;;;;;;;;;;;21.62;49.12;95874.16;10487123;28;2033;-49
2022/10/13 16:07:57;;;;;;;;;;;;;;;21.60;49.14;95873.63;10476902;28;2128;-48
2022/10/13 16:12:57;;;;;;;;;;;;;;;21.59;49.15;95872.88;10483958;28;2269;-48
2022/10/13 16:17:59;;;;;;;;;;;;;;;21.60;49.07;95868.38;10491252;28;2138;-48
2022/10/13 16:23:09;;;;;;;;;;;;;;;21.61;48.64;95860.19;10467361;28;2067;-50
2022/10/13 16:28:09;;;;;;;;;;;;;;;21.58;48.82;95859.94;10487996;28;1995;-45
2022/10/13 16:33:10;;;;;;;;;;;;;;;21.57;48.84;95874.22;10489362;28;2120;-52
2022/10/13 16:38:11;;;;;;;;;;;;;;;21.58;48.75;95884.47;10484502;28;2080;-48
2022/10/13 16:43:14;;;;;;;;;;;;;;;21.57;49.11;95888.19;10486698;28;2051;-49
2022/10/13 16:48:14;;;;;;;;;;;;;;;21.60;48.78;95890.25;10485275;28;2122;-49
2022/10/13 16:53:15;;;;;;;;;;;;;;;21.60;48.62;95889.47;10489692;28;1978;-47
2022/10/13 16:58:15;;;;;;;;;;;;;;;21.59;48.58;95887.91;10489928;28;1991;-48
2022/10/13 17:03:16;;;;;;;;;;;;;;;21.59;48.79;95880.00;10488292;28;2007;-49
2022/10/13 17:08:17;;;;;;;;;;;;;;;21.58;48.97;95886.31;10484669;28;2023;-47
2022/10/13 17:13:17;;;;;;;;;;;;;;;21.56;49.11;95878.69;10483126;28;2116;-45
2022/10/13 17:18:17;;;;;;;;;;;;;;;21.64;49.00;95891.28;10478105;28;2091;-50
2022/10/13 17:23:20;;;;;;;;;;;;;;;21.59;49.02;95893.19;10458502;28;2080;-46
2022/10/13 17:28:20;;;;;;;;;;;;;;;21.60;48.94;95895.53;10481011;28;2244;-44
2022/10/13 17:33:21;;;;;;;;;;;;;;;21.56;49.05;95893.72;10483203;28;2150;-46
2022/10/13 17:38:22;;;;;;;;;;;;;;;21.56;49.16;95901.63;10483560;28;2079;-48
2022/10/13 17:43:22;;;;;;;;;;;;;;;21.56;49.10;95888.44;10479452;28;2035;-47
2022/10/13 17:48:23;;;;;;;;;;;;;;;21.60;48.87;95892.09;10491836;28;2199;-45
2022/10/13 17:53:23;;;;;;;;;;;;;;;21.56;49.32;95896.34;10474283;28;1996;-47
2022/10/13 17:58:23;;;;;;;;;;;;;;;21.54;48.99;95890.56;10481882;28;2059;-52
2022/10/13 18:03:24;;;;;;;;;;;;;;;21.54;49.06;95880.81;10484990;28;2127;-48
2022/10/13 18:08:26;;;;;;;;;;;;;;;21.58;49.16;95881.84;10482288;28;2278;-48
2022/10/13 18:13:26;;;;;;;;;;;;;;;21.54;49.51;95880.03;10484436;28;2099;-47
2022/10/13 18:18:27;;;;;;;;;;;;;;;21.53;49.49;95884.53;10481697;28;2049;-45
2022/10/13 18:23:31;;;;;;;;;;;;;;;21.54;49.48;95880.03;10481882;28;2083;-49
2022/10/13 18:28:32;;;;;;;;;;;;;;;21.52;49.70;95877.66;10480660;28;2155;-48
2022/10/13 18:33:33;;;;;;;;;;;;;;;21.55;49.79;95871.06;10480174;28;2117;-45
2022/10/13 18:38:33;;;;;;;;;;;;;;;21.56;49.97;95872.63;10478045;28;2108;-47
2022/10/13 18:43:33;;;;;;;;;;;;;;;21.62;50.30;95871.50;10488501;28;1958;-49
2022/10/13 18:48:34;;;;;;;;;;;;;;;21.54;50.16;95872.09;10489868;28;2091;-46
2022/10/13 18:53:36;;;;;;;;;;;;;;;21.57;50.32;95863.66;10477636;28;2054;-48
2022/10/13 18:58:36;;;;;;;;;;;;;;;21.61;50.43;95862.03;10479695;28;2154;-49
2022/10/13 19:03:36;;;;;;;;;;;;;;;21.58;50.02;95865.22;10480062;28;2175;-47
2022/10/13 19:08:37;;;;;;;;;;;;;;;21.56;49.97;95856.78;10478597;28;1988;-50
2022/10/13 19:13:37;;;;;;;;;;;;;;;21.66;49.69;95857.50;10480322;28;2127;-49
2022/10/13 19:18:38;;;;;;;;;;;;;;;21.69;49.81;95850.88;10446248;28;2141;-47
2022/10/13 19:23:38;;;;;;;;;;;;;;;21.66;49.97;95846.94;10478838;28;2102;-48
2022/10/13 19:28:39;;;;;;;;;;;;;;;21.66;50.20;95849.59;10477923;28;1996;-48
2022/10/13 19:33:41;;;;;;;;;;;;;;;21.67;50.25;95851.16;10478997;28;1918;-50
2022/10/13 19:38:41;;;;;;;;;;;;;;;21.69;50.63;95851.69;10482459;28;2060;-50
2022/10/13 19:43:42;;;;;;;;;;;;;;;21.75;50.65;95855.84;10477379;28;2027;-50
2022/10/13 19:48:48;;;;;;;;;;;;;;;21.75;51.06;95849.78;10481221;28;2084;-49
2022/10/13 19:53:49;;;;;;;;;;;;;;;21.71;51.40;95843.47;10480438;28;1991;-46
2022/10/13 19:58:50;;;;;;;;;;;;;;;21.69;51.33;95840.34;10480386;28;2050;-46
2022/10/13 20:03:51;;;;;;;;;;;;;;;21.70;51.49;95828.72;10481209;28;2058;-49
2022/10/13 20:08:51;;;;;;;;;;;;;;;21.68;51.63;95844.03;10475296;28;2119;-52
2022/10/13 20:13:51;;;;;;;;;;;;;;;21.73;51.68;95851.91;10449077;28;2056;-48
2022/10/13 20:18:52;;;;;;;;;;;;;;;21.67;52.04;95840.63;10479456;28;2184;-48
2022/10/13 20:23:59;;;;;;;;;;;;;;;21.70;52.03;95847.19;10478701;28;2151;-52
2022/10/13 20:28:59;;;;;;;;;;;;;;;21.65;52.34;95844.59;10479543;28;2075;-51
2022/10/13 20:34:00;;;;;;;;;;;;;;;21.67;52.23;95847.75;10477152;28;2086;-50
2022/10/13 20:39:00;;;;;;;;;;;;;;;21.65;52.10;95848.03;10477846;28;1963;-50
2022/10/13 20:44:00;;;;;;;;;;;;;;;21.62;52.07;95847.78;10466654;28;2081;-48
2022/10/13 20:49:00;;;;;;;;;;;;;;;21.54;52.03;95854.44;10465035;28;1980;-46
2022/10/13 20:54:01;;;;;;;;;;;;;;;21.50;52.29;95855.25;10485119;28;2191;-50
2022/10/13 20:59:04;;;;;;;;;;;;;;;21.49;52.08;95851.06;10484970;28;2089;-53
2022/10/13 21:04:05;;;;;;;;;;;;;;;21.49;52.12;95845.78;10465423;28;2109;-48
2022/10/13 21:09:05;;;;;;;;;;;;;;;21.44;51.96;95837.91;10483226;28;2092;-49
2022/10/13 21:14:07;;;;;;;;;;;;;;;21.42;51.84;95843.47;10483193;28;1991;-48
2022/10/13 21:19:07;;;;;;;;;;;;;;;21.41;52.06;95846.38;10485475;28;2044;-48
2022/10/13 21:24:08;;;;;;;;;;;;;;;21.40;52.00;95842.16;10482833;28;2137;-47
2022/10/13 21:29:08;;;;;;;;;;;;;;;21.36;52.01;95846.41;10482644;28;2018;-47
2022/10/13 21:34:09;;;;;;;;;;;;;;;21.35;52.33;95844.84;10480633;28;2008;-51
2022/10/13 21:39:10;;;;;;;;;;;;;;;21.37;52.01;95843.50;10478738;28;2085;-48
2022/10/13 21:44:11;;;;;;;;;;;;;;;21.36;52.16;95852.47;10483005;28;1958;-48
2022/10/13 21:49:21;;;;;;;;;;;;;;;21.35;51.82;95865.94;10481882;28;2032;-47
2022/10/13 21:54:31;;;;;;;;;;;;;;;21.36;51.91;95868.31;10461865;28;1974;-50
2022/10/13 21:59:33;;;;;;;;;;;;;;;21.37;51.81;95877.78;10476990;28;1911;-48
2022/10/13 22:04:43;;;;;;;;;;;;;;;21.34;51.74;95885.47;10477616;28;1998;-47
2022/10/13 22:09:54;;;;;;;;;;;;;;;21.35;51.74;95897.59;10477411;28;1961;-49
2022/10/13 22:15:00;;;;;;;;;;;;;;;21.37;51.69;95895.47;10480480;28;1965;-51
2022/10/13 22:20:11;;;;;;;;;;;;;;;21.37;51.62;95912.06;10476852;28;2041;-47
2022/10/13 22:25:21;;;;;;;;;;;;;;;21.31;51.63;95917.66;10477475;28;2051;-48
2022/10/13 22:30:30;;;;;;;;;;;;;;;21.34;51.39;95925.00;10479417;28;2071;-50
2022/10/13 22:35:34;;;;;;;;;;;;;;;21.31;51.26;95920.31;10476813;28;2066;-48
2022/10/13 22:40:44;;;;;;;;;;;;;;;21.31;51.16;95910.53;10458321;28;2024;-50
2022/10/13 22:45:50;;;;;;;;;;;;;;;21.30;51.35;95902.88;10477007;28;1976;-49
2022/10/13 22:51:09;;;;;;;;;;;;;;;21.26;51.59;95907.13;10473027;28;2085;-46
2022/10/13 22:56:20;;;;;;;;;;;;;;;21.22;51.30;95909.53;10477736;28;2190;-48
2022/10/13 23:01:20;;;;;;;;;;;;;;;21.25;51.54;95897.63;10458338;28;2040;-47
2022/10/13 23:06:31;;;;;;;;;;;;;;;21.22;51.29;95893.72;10472680;28;1993;-48
2022/10/13 23:11:32;;;;;;;;;;;;;;;21.17;51.21;95891.09;10484623;28;2112;-48
2022/10/13 23:16:32;;;;;;;;;;;;;;;21.19;51.01;95888.97;10464906;28;2079;-47
2022/10/13 23:21:33;;;;;;;;;;;;;;;21.17;51.40;95877.94;10480613;28;2007;-48
2022/10/13 23:26:33;;;;;;;;;;;;;;;21.14;51.15;95875.06;10480896;28;2004;-49
2022/10/13 23:31:34;;;;;;;;;;;;;;;21.19;50.85;95872.38;10480348;28;2170;-48
2022/10/13 23:36:34;;;;;;;;;;;;;;;21.17;51.14;95877.13;10484642;28;2107;-50
2022/10/13 23:41:35;;;;;;;;;;;;;;;21.13;51.22;95865.56;10476264;28;1911;-45
2022/10/13 23:46:35;;;;;;;;;;;;;;;21.11;51.17;95865.84;10464647;28;2128;-48
2022/10/13 23:51:35;;;;;;;;;;;;;;;21.11;51.09;95857.13;10476868;28;2071;-48
2022/10/13 23:56:40;;;;;;;;;;;;;;;21.14;50.96;95853.97;10484170;28;2089;-48
